This is the latest recevied weather packets stored in our database for station/object KD4MBW. If no packets are shown the sender has not sent any weather packets the latest 10 day(s).
| Time | Temp. | Humidity | Pressure | Rain* | Wind** | Luminosity | Snow |
|---|---|---|---|---|---|---|---|
| 1788123294 | 29.44° C | 85% | 1016.5 hPa | 0 mm | - | 181 W/m² | - |
| 1788122990 | 29.44° C | 85% | 1016.6 hPa | 0 mm | - | 170 W/m² | - |
| 1788122689 | 29.44° C | 85% | 1016.7 hPa | 0 mm | - | 126 W/m² | - |
| 1788122384 | 29.44° C | 85% | 1016.6 hPa | 0 mm | - | 133 W/m² | - |
| 1788122081 | 29.44° C | 85% | 1016.6 hPa | 0 mm | - | 156 W/m² | - |
| 1788121779 | 29.44° C | 84% | 1016.7 hPa | 0 mm | - | 178 W/m² | - |
| 1788121474 | 30° C | 83% | 1016.4 hPa | 0 mm | - | 212 W/m² | - |
| 1788121170 | 30.56° C | 78% | 1016.5 hPa | 0 mm | - | 209 W/m² | - |
| 1788120864 | 30.56° C | 77% | 1016.6 hPa | 0 mm | - | 144 W/m² | - |
| 1788120560 | 30.56° C | 78% | 1016.4 hPa | 0 mm | - | 118 W/m² | - |
| 1788120259 | 32.22° C | 73% | 1016.6 hPa | 0 mm | - | 130 W/m² | - |
| 1788119949 | 32.78° C | 66% | 1016.6 hPa | 0 mm | - | 457 W/m² | - |
| 1788119648 | 32.22° C | 67% | 1016.9 hPa | 0 mm | - | 247 W/m² | - |
| 1788119347 | 32.78° C | 66% | 1016.9 hPa | 0 mm | - | 237 W/m² | - |
| 1788119041 | 33.33° C | 68% | 1016.9 hPa | 0 mm | - | 612 W/m² | - |
| 1788118735 | 32.78° C | 68% | 1017 hPa | 0 mm | - | 676 W/m² | - |
| 1788118435 | 32.22° C | 69% | 1017.2 hPa | 0 mm | - | 715 W/m² | - |
| 1788118130 | 32.22° C | 70% | 1017.2 hPa | 0 mm | - | 572 W/m² | - |
| 1788117830 | 31.67° C | 70% | 1017.3 hPa | 0 mm | - | 526 W/m² | - |
| 1788117526 | 32.22° C | 69% | 1017.5 hPa | 0 mm | - | 624 W/m² | - |
| 1788117225 | 32.22° C | 70% | 1017.5 hPa | 0 mm | - | 747 W/m² | - |
| 1788116922 | 32.22° C | 66% | 1017.3 hPa | 0 mm | - | 708 W/m² | - |
| 1788116616 | 31.67° C | 72% | 1017.6 hPa | 0 mm | - | 728 W/m² | - |
| 1788116315 | 31.67° C | 73% | 1017.7 hPa | 0 mm | - | 166 W/m² | - |
| 1788116010 | 31.67° C | 72% | 1017.8 hPa | 0 mm | - | 159 W/m² | - |
* Rain latest hour (hover to see other rain measurements)
** Current wind speed in m/s (hover to see current wind gust speed)